Time;durP1;ratioP1;P1;durP2;ratioP2;P2;SDS_P1;SDS_P2;PMS_P1;PMS_P2;Temp;Humidity;BMP_temperature;BMP_pressure;BME280_temperature;BME280_humidity;BME280_pressure;Samples;Min_cycle;Max_cycle;Signal;HPM_P1;HPM_P2
2022/02/21 00:02:06;;;;;;;15.43;6.60;;;;;;;10.69;82.14;98958.59;5161897;27;20031;-93
2022/02/21 00:04:32;;;;;;;14.90;6.47;;;;;;;10.77;82.00;98971.72;5162295;27;20064;-94
2022/02/21 00:06:58;;;;;;;16.95;6.93;;;;;;;10.61;82.07;98950.84;5161689;27;20051;-94
2022/02/21 00:09:24;;;;;;;10.90;5.82;;;;;;;10.59;81.91;98944.66;5161559;27;20038;-93
2022/02/21 00:11:50;;;;;;;14.20;6.40;;;;;;;10.60;81.77;98935.78;5159207;27;20034;-93
2022/02/21 00:14:16;;;;;;;12.45;6.35;;;;;;;10.76;82.09;98968.19;5151605;27;20042;-94
2022/02/21 00:16:42;;;;;;;11.90;6.80;;;;;;;10.69;82.77;98971.91;5153741;27;20078;-94
2022/02/21 00:19:10;;;;;;;12.52;5.82;;;;;;;10.63;83.02;98950.81;5165619;27;20154;-94
2022/02/21 00:21:36;;;;;;;14.07;6.40;;;;;;;10.74;83.58;98962.03;5161990;27;20047;-93
2022/02/21 00:24:02;;;;;;;12.38;6.78;;;;;;;10.71;83.97;98959.44;5163337;27;20076;-93
2022/02/21 00:26:28;;;;;;;16.95;7.13;;;;;;;10.59;84.80;98947.34;5166522;27;20129;-93
2022/02/21 00:28:54;;;;;;;12.05;6.93;;;;;;;10.60;85.46;98945.53;5164098;27;20039;-94
2022/02/21 00:31:20;;;;;;;14.85;7.57;;;;;;;10.46;85.59;98916.63;5144821;27;20100;-93
2022/02/21 00:33:46;;;;;;;17.25;6.90;;;;;;;10.50;85.54;98914.78;5163588;27;20047;-93
2022/02/21 00:36:14;;;;;;;15.52;6.38;;;;;;;10.66;85.68;98937.41;5166080;27;20051;-93
2022/02/21 00:38:40;;;;;;;17.27;7.07;;;;;;;10.48;85.21;98910.38;5165174;27;20039;-94
2022/02/21 00:41:06;;;;;;;16.65;6.60;;;;;;;10.57;85.43;98929.69;5164628;27;20065;-93
2022/02/21 00:43:32;;;;;;;14.52;6.53;;;;;;;10.62;85.65;98928.63;5156082;27;20050;-94
2022/02/21 00:45:58;;;;;;;15.20;6.70;;;;;;;10.47;85.72;98902.41;5144264;27;20039;-93
2022/02/21 00:48:24;;;;;;;12.57;6.72;;;;;;;10.62;84.58;98927.75;5151455;27;20472;-94
2022/02/21 00:50:50;;;;;;;15.27;7.72;;;;;;;10.56;84.54;98917.28;5149529;27;20047;-94
2022/02/21 00:53:18;;;;;;;15.02;8.40;;;;;;;10.38;84.69;98887.56;5152635;27;20399;-94
2022/02/21 00:55:43;;;;;;;16.35;6.60;;;;;;;10.40;84.59;98887.53;5165073;27;20130;-94
2022/02/21 00:58:10;;;;;;;12.98;6.32;;;;;;;10.34;84.02;98885.88;5164607;27;20067;-95
2022/02/21 01:00:37;;;;;;;18.00;8.88;;;;;;;10.45;83.53;98909.56;5152442;27;20092;-94
2022/02/21 01:03:04;;;;;;;17.00;8.55;;;;;;;10.30;83.19;98888.66;5163297;27;20047;-94
2022/02/21 01:05:30;;;;;;;12.48;6.03;;;;;;;10.40;82.57;98898.16;5155830;27;20035;-93
2022/02/21 01:07:56;;;;;;;16.20;7.18;;;;;;;10.28;82.90;98870.09;5143717;27;20055;-93
2022/02/21 01:10:26;;;;;;;11.95;5.88;;;;;;;10.33;82.96;98873.53;5153355;27;20058;-94
2022/02/21 01:12:52;;;;;;;13.55;5.82;;;;;;;10.37;82.70;98880.53;5164859;27;20119;-93
2022/02/21 01:15:18;;;;;;;14.13;5.55;;;;;;;10.28;81.88;98864.78;5149855;27;20094;-94
2022/02/21 01:17:45;;;;;;;12.80;5.25;;;;;;;10.32;82.42;98885.06;5143601;27;20062;-94
2022/02/21 01:20:12;;;;;;;14.60;5.70;;;;;;;10.23;82.95;98871.97;5145834;27;20100;-93
2022/02/21 01:22:38;;;;;;;14.45;5.53;;;;;;;10.16;82.94;98862.41;5159982;27;20035;-94
2022/02/21 01:25:05;;;;;;;10.65;5.30;;;;;;;10.28;83.69;98884.25;5157884;27;20075;-93
2022/02/21 01:27:33;;;;;;;16.38;5.88;;;;;;;10.37;83.03;98880.53;5158886;27;20035;-94
2022/02/21 01:29:59;;;;;;;12.97;4.80;;;;;;;10.26;82.92;98845.31;5155124;27;20041;-94
2022/02/21 01:32:25;;;;;;;20.50;5.30;;;;;;;10.18;82.87;98841.97;5159503;27;20035;-94
2022/02/21 01:34:51;;;;;;;12.15;5.50;;;;;;;10.27;83.08;98863.88;5155744;27;20039;-94
2022/02/21 01:37:17;;;;;;;11.32;5.32;;;;;;;10.10;83.83;98838.63;5151605;27;20062;-94
2022/02/21 01:39:43;;;;;;;14.05;5.28;;;;;;;10.02;83.69;98823.75;5153660;27;20039;-94
2022/02/21 01:42:10;;;;;;;12.00;5.28;;;;;;;10.17;84.45;98846.44;5163269;27;20392;-93
2022/02/21 01:44:40;;;;;;;17.13;5.78;;;;;;;10.01;84.57;98826.44;5152630;27;20496;-93
2022/02/21 01:47:08;;;;;;;11.68;5.78;;;;;;;10.19;84.81;98859.66;5156150;27;20066;-94
2022/02/21 01:49:34;;;;;;;11.77;4.88;;;;;;;10.17;85.05;98858.81;5150742;27;20031;-94
2022/02/21 01:52:01;;;;;;;12.48;5.60;;;;;;;10.00;85.58;98827.34;5142739;27;20036;-93
2022/02/21 01:54:27;;;;;;;12.52;5.25;;;;;;;9.97;85.49;98817.66;5146034;27;20052;-93
2022/02/21 01:56:53;;;;;;;11.63;5.53;;;;;;;10.04;85.27;98832.56;5162384;27;20068;-95
2022/02/21 01:59:19;;;;;;;16.50;5.70;;;;;;;9.88;84.67;98809.91;5158548;27;20035;-94
2022/02/21 02:01:48;;;;;;;17.33;7.50;;;;;;;10.01;84.53;98816.66;5150655;27;20102;-93
2022/02/21 02:04:14;;;;;;;13.88;5.78;;;;;;;9.96;84.32;98807.94;5163732;27;20043;-93
2022/02/21 02:06:40;;;;;;;13.65;6.03;;;;;;;9.92;84.49;98794.78;5154409;27;20051;-93
2022/02/21 02:09:06;;;;;;;16.17;6.60;;;;;;;9.99;84.49;98810.53;5151089;27;20142;-93
2022/02/21 02:11:34;;;;;;;14.85;6.72;;;;;;;10.05;84.59;98817.47;5158759;27;20066;-94
2022/02/21 02:14:00;;;;;;;14.07;6.30;;;;;;;9.95;84.70;98792.91;5151983;27;20039;-93
2022/02/21 02:16:25;;;;;;;14.48;5.57;;;;;;;9.96;85.83;98784.03;5159416;27;20034;-93
2022/02/21 02:18:53;;;;;;;10.30;5.55;;;;;;;9.98;85.97;98778.69;5152047;27;20038;-93
2022/02/21 02:21:21;;;;;;;18.23;6.40;;;;;;;10.02;85.40;98786.56;5154546;27;20074;-93
2022/02/21 02:23:49;;;;;;;16.57;6.60;;;;;;;9.95;86.78;98776.97;5149056;27;20483;-93
2022/02/21 02:26:16;;;;;;;17.17;6.00;;;;;;;10.01;86.44;98781.28;5149095;27;20092;-92
2022/02/21 02:28:42;;;;;;;14.23;6.85;;;;;;;9.99;86.47;98785.75;5154942;27;20067;-93
2022/02/21 02:31:07;;;;;;;22.60;7.35;;;;;;;9.92;87.04;98786.81;5142495;27;20046;-93
2022/02/21 02:33:33;;;;;;;16.48;7.10;;;;;;;9.92;87.18;98769.09;5159618;27;20066;-92
2022/02/21 02:36:00;;;;;;;15.52;7.20;;;;;;;9.97;87.47;98771.63;5150941;27;20039;-93
2022/02/21 02:38:26;;;;;;;13.68;6.57;;;;;;;10.05;87.42;98783.81;5162221;27;20129;-94
2022/02/21 02:40:53;;;;;;;13.15;6.70;;;;;;;9.96;87.28;98781.38;5147630;27;20092;-93
2022/02/21 02:43:19;;;;;;;19.55;6.57;;;;;;;9.81;86.71;98753.41;5153485;27;20060;-94
2022/02/21 02:45:44;;;;;;;14.35;6.35;;;;;;;9.87;86.42;98768.34;5150450;27;20531;-93
2022/02/21 02:48:11;;;;;;;11.18;5.85;;;;;;;9.85;85.68;98759.53;5150988;27;20043;-94
2022/02/21 02:50:37;;;;;;;15.93;5.85;;;;;;;9.91;86.16;98750.53;5151388;27;20035;-94
2022/02/21 02:53:03;;;;;;;16.77;6.80;;;;;;;10.01;86.58;98760.00;5155885;27;20152;-93
2022/02/21 02:55:29;;;;;;;12.90;5.97;;;;;;;9.95;85.43;98741.56;5151683;27;20031;-95
2022/02/21 02:57:57;;;;;;;10.90;5.72;;;;;;;9.84;85.19;98733.88;5156795;27;20039;-93
2022/02/21 03:00:23;;;;;;;12.57;5.35;;;;;;;9.80;85.76;98734.84;5150349;27;20117;-93
2022/02/21 03:02:49;;;;;;;11.20;5.47;;;;;;;9.89;86.23;98750.59;5154443;27;20039;-94
2022/02/21 03:05:15;;;;;;;9.80;5.55;;;;;;;9.89;86.54;98739.97;5155521;27;20049;-93
2022/02/21 03:07:40;;;;;;;16.17;5.65;;;;;;;9.92;85.71;98755.81;5156533;27;20451;-93
2022/02/21 03:10:07;;;;;;;13.65;5.72;;;;;;;9.85;85.57;98740.94;5152909;27;20040;-93
2022/02/21 03:12:33;;;;;;;9.13;4.78;;;;;;;9.97;85.95;98742.41;5155526;27;20066;-94
2022/02/21 03:15:00;;;;;;;12.63;5.43;;;;;;;9.82;85.23;98733.03;5145517;27;20054;-94
2022/02/21 03:17:26;;;;;;;11.93;5.38;;;;;;;9.90;85.47;98736.38;5155744;27;20027;-94
2022/02/21 03:19:51;;;;;;;11.65;5.60;;;;;;;9.95;85.64;98749.53;5147024;27;20038;-93
2022/02/21 03:22:17;;;;;;;14.15;5.47;;;;;;;9.85;85.05;98738.28;5149865;27;20088;-94
2022/02/21 03:24:43;;;;;;;12.25;4.70;;;;;;;9.70;85.33;98717.41;5159053;27;20051;-92
2022/02/21 03:27:09;;;;;;;12.98;5.22;;;;;;;9.68;85.79;98716.59;5157051;27;20095;-94
2022/02/21 03:29:35;;;;;;;14.30;5.40;;;;;;;9.72;85.77;98718.25;5161149;27;20043;-93
2022/02/21 03:32:03;;;;;;;10.70;5.43;;;;;;;9.85;85.53;98740.94;5149626;27;20039;-94
2022/02/21 03:34:28;;;;;;;10.88;5.63;;;;;;;9.69;86.28;98721.84;5147393;27;20047;-92
2022/02/21 03:36:54;;;;;;;14.75;6.10;;;;;;;9.74;86.86;98745.66;5151437;27;20111;-92
2022/02/21 03:39:20;;;;;;;10.98;5.40;;;;;;;9.66;87.51;98725.44;5157756;27;20129;-94
2022/02/21 03:41:46;;;;;;;13.68;6.32;;;;;;;9.69;86.85;98729.78;5152061;27;20043;-94
2022/02/21 03:44:12;;;;;;;11.27;5.75;;;;;;;9.56;86.33;98701.81;5152669;27;20031;-92
2022/02/21 03:46:41;;;;;;;13.27;5.82;;;;;;;9.77;87.23;98738.47;5157399;27;20039;-93
2022/02/21 03:49:10;;;;;;;10.57;5.13;;;;;;;9.72;86.30;98716.47;5164098;27;20113;-92
2022/02/21 03:51:36;;;;;;;12.77;5.78;;;;;;;9.70;86.49;98728.03;5154477;27;20038;-92
2022/02/21 03:54:02;;;;;;;14.13;5.32;;;;;;;9.65;86.32;98715.75;5160251;27;20551;-94
2022/02/21 03:56:28;;;;;;;12.15;5.57;;;;;;;9.75;86.50;98731.44;5158478;27;20035;-93
2022/02/21 03:58:54;;;;;;;12.05;5.57;;;;;;;9.64;87.02;98703.34;5146360;27;20046;-94
2022/02/21 04:01:20;;;;;;;19.05;6.10;;;;;;;9.57;86.71;98688.50;5156768;27;20530;-94
2022/02/21 04:03:46;;;;;;;12.65;5.30;;;;;;;9.78;87.07;98726.94;5154385;27;20137;-93
2022/02/21 04:06:13;;;;;;;13.63;5.00;;;;;;;9.59;86.96;98691.13;5161282;27;20071;-93
2022/02/21 04:08:39;;;;;;;14.18;5.80;;;;;;;9.64;87.53;98703.34;5159722;27;20058;-92
2022/02/21 04:11:05;;;;;;;11.70;5.53;;;;;;;9.59;86.83;98694.66;5148450;27;20043;-94
2022/02/21 04:13:31;;;;;;;16.00;5.78;;;;;;;9.63;87.06;98711.38;5151250;27;20031;-94
2022/02/21 04:15:58;;;;;;;9.57;5.47;;;;;;;9.63;86.79;98706.06;5150740;27;20034;-95
2022/02/21 04:18:24;;;;;;;12.48;5.30;;;;;;;9.64;86.54;98708.66;5161116;27;20039;-93
2022/02/21 04:20:49;;;;;;;15.43;6.05;;;;;;;9.63;86.90;98706.06;5153019;27;20050;-94
2022/02/21 04:23:17;;;;;;;11.27;5.28;;;;;;;9.56;86.77;98688.53;5153109;27;20122;-94
2022/02/21 04:25:44;;;;;;;14.38;5.93;;;;;;;9.72;87.30;98715.59;5153017;27;20051;-94
2022/02/21 04:28:10;;;;;;;13.48;5.65;;;;;;;9.68;87.50;98696.19;5153867;27;20041;-93
2022/02/21 04:30:37;;;;;;;14.32;5.53;;;;;;;9.55;87.60;98671.75;5147684;27;20134;-94
2022/02/21 04:33:03;;;;;;;9.65;5.18;;;;;;;9.60;87.22;98659.22;5156673;27;20046;-94
2022/02/21 04:35:29;;;;;;;12.68;5.65;;;;;;;9.56;88.00;98646.06;5158824;27;20037;-95
2022/02/21 04:37:56;;;;;;;10.88;5.45;;;;;;;9.54;88.26;98643.47;5153117;27;20038;-94
2022/02/21 04:40:26;;;;;;;12.15;5.82;;;;;;;9.66;88.71;98666.16;5150438;27;20043;-93
2022/02/21 04:42:53;;;;;;;11.52;5.50;;;;;;;9.57;88.65;98659.31;5140932;27;20043;-94
2022/02/21 04:45:19;;;;;;;15.75;5.25;;;;;;;9.39;89.12;98630.53;5149755;27;20456;-93
2022/02/21 04:47:45;;;;;;;14.27;5.93;;;;;;;9.44;89.28;98642.81;5145501;27;20122;-94
2022/02/21 04:50:11;;;;;;;15.70;6.38;;;;;;;9.44;89.00;98637.50;5156060;27;20070;-93
2022/02/21 04:52:38;;;;;;;12.40;6.43;;;;;;;9.54;89.05;98648.78;5162660;27;20090;-93
2022/02/21 04:55:05;;;;;;;14.27;6.10;;;;;;;9.62;89.00;98653.88;5145180;27;20046;-93
2022/02/21 04:57:33;;;;;;;15.52;6.25;;;;;;;9.64;89.24;98646.75;5163567;27;20403;-93
2022/02/21 04:59:58;;;;;;;15.77;6.03;;;;;;;9.48;89.62;98618.81;5150123;27;20069;-94
2022/02/21 05:02:24;;;;;;;15.48;6.25;;;;;;;9.47;89.78;98599.38;5151657;27;20136;-95
2022/02/21 05:04:52;;;;;;;14.88;6.05;;;;;;;9.69;89.68;98628.03;5159614;27;20055;-93
2022/02/21 05:07:17;;;;;;;16.33;6.18;;;;;;;9.49;89.57;98586.94;5152636;27;20043;-94
2022/02/21 05:09:43;;;;;;;16.90;6.10;;;;;;;9.50;89.38;98583.41;5155664;27;20038;-95
2022/02/21 05:12:10;;;;;;;16.17;8.25;;;;;;;9.51;89.11;98576.28;5151651;27;20440;-93
2022/02/21 05:14:37;;;;;;;17.20;7.65;;;;;;;9.47;89.60;98575.50;5147693;27;20035;-93
2022/02/21 05:17:04;;;;;;;18.45;7.80;;;;;;;9.54;89.62;98577.09;5151171;27;20509;-94
2022/02/21 05:19:31;;;;;;;18.13;7.93;;;;;;;9.52;89.54;98570.06;5162871;27;20058;-93
2022/02/21 05:21:57;;;;;;;15.35;7.00;;;;;;;9.54;89.94;98571.78;5163020;27;20541;-95
2022/02/21 05:24:22;;;;;;;13.10;6.32;;;;;;;9.34;90.11;98540.44;5163035;27;20133;-94
2022/02/21 05:26:48;;;;;;;15.95;6.70;;;;;;;9.41;90.43;98546.44;5163458;27;20085;-94
2022/02/21 05:29:15;;;;;;;13.82;6.22;;;;;;;9.30;90.61;98543.22;5142025;27;20035;-94
2022/02/21 05:31:42;;;;;;;19.52;7.55;;;;;;;9.28;91.38;98550.34;5156159;27;20118;-95
2022/02/21 05:34:08;;;;;;;14.73;6.45;;;;;;;9.13;91.89;98536.56;5152826;27;20065;-95
2022/02/21 05:36:34;;;;;;;15.45;7.53;;;;;;;9.04;92.23;98542.06;5159134;27;20047;-95
2022/02/21 05:39:00;;;;;;;17.67;7.00;;;;;;;8.82;92.74;98521.38;5141232;27;20130;-95
2022/02/21 05:41:26;;;;;;;17.33;7.10;;;;;;;8.87;93.86;98550.47;5145981;27;20042;-95
2022/02/21 05:43:51;;;;;;;17.83;7.07;;;;;;;8.53;94.49;98502.66;5160436;27;20051;-94
2022/02/21 05:46:17;;;;;;;21.17;7.60;;;;;;;8.57;95.07;98517.59;5142745;27;20072;-95
2022/02/21 05:48:45;;;;;;;16.95;8.25;;;;;;;8.30;95.94;98490.75;5144524;27;20042;-95
2022/02/21 05:51:10;;;;;;;20.92;8.25;;;;;;;8.23;96.68;98499.75;5146796;27;20075;-93
2022/02/21 05:53:41;;;;;;;19.40;9.32;;;;;;;8.37;97.99;98524.16;5143489;27;20047;-94
2022/02/21 05:56:08;;;;;;;22.67;9.30;;;;;;;8.34;97.95;98497.72;5151042;27;20046;-94
2022/02/21 05:58:33;;;;;;;17.75;7.90;;;;;;;8.28;98.13;98505.81;5147473;27;20590;-94
2022/02/21 06:00:59;;;;;;;22.33;8.23;;;;;;;8.41;99.09;98527.63;5162622;27;20066;-93
2022/02/21 06:03:25;;;;;;;19.50;8.70;;;;;;;8.50;99.90;98535.41;5162456;27;20043;-94
2022/02/21 06:05:52;;;;;;;18.48;8.88;;;;;;;8.54;99.64;98528.22;5143982;27;20050;-94
2022/02/21 06:08:18;;;;;;;19.30;8.27;;;;;;;8.56;98.97;98508.72;5154217;27;20051;-94
2022/02/21 06:10:44;;;;;;;20.58;8.98;;;;;;;8.61;98.86;98501.56;5160312;27;20064;-94
2022/02/21 06:13:10;;;;;;;17.50;9.15;;;;;;;8.89;98.51;98538.03;5147678;27;20046;-93
2022/02/21 06:15:36;;;;;;;26.17;11.60;;;;;;;8.79;98.65;98508.22;5155269;27;20045;-93
2022/02/21 06:18:02;;;;;;;29.05;12.35;;;;;;;8.98;98.37;98529.00;5151714;27;20050;-94
2022/02/21 06:20:28;;;;;;;24.60;10.45;;;;;;;9.07;98.38;98534.06;5146882;27;20057;-94
2022/02/21 06:22:55;;;;;;;25.02;11.40;;;;;;;9.03;98.59;98520.00;5157660;27;20523;-93
2022/02/21 06:25:22;;;;;;;24.30;10.68;;;;;;;9.03;98.64;98501.41;5141688;27;20130;-93
2022/02/21 06:27:48;;;;;;;32.92;12.88;;;;;;;9.00;99.09;98501.50;5155617;27;20100;-94
2022/02/21 06:30:14;;;;;;;27.20;11.68;;;;;;;9.19;99.47;98520.47;5143282;27;20054;-92
2022/02/21 06:32:39;;;;;;;30.55;13.95;;;;;;;9.20;99.48;98516.06;5153971;27;20038;-92
2022/02/21 06:35:07;;;;;;;33.70;11.63;;;;;;;9.13;99.58;98495.88;5157729;27;20476;-95
2022/02/21 06:37:33;;;;;;;29.85;12.82;;;;;;;9.41;99.53;98534.06;5156050;27;20038;-94
2022/02/21 06:40:00;;;;;;;27.10;12.30;;;;;;;9.32;99.42;98517.50;5140327;27;20102;-95
2022/02/21 06:42:26;;;;;;;31.88;13.25;;;;;;;9.49;99.70;98548.91;5150036;27;20031;-93
2022/02/21 06:44:53;;;;;;;32.03;11.75;;;;;;;9.29;100.00;98510.50;5150719;27;20437;-95
2022/02/21 06:47:18;;;;;;;26.58;12.00;;;;;;;9.46;100.00;98532.16;5153809;27;20066;-93
2022/02/21 06:49:44;;;;;;;26.05;11.35;;;;;;;9.48;99.87;98523.28;5155701;27;20499;-95
2022/02/21 06:52:10;;;;;;;29.58;11.75;;;;;;;9.51;99.83;98529.38;5145854;27;20062;-92
2022/02/21 06:54:36;;;;;;;26.02;11.02;;;;;;;9.63;99.75;98530.84;5144927;27;20061;-93
2022/02/21 06:57:04;;;;;;;27.15;11.90;;;;;;;9.60;99.81;98515.84;5149651;27;20455;-94
2022/02/21 06:59:30;;;;;;;28.13;11.50;;;;;;;9.96;98.99;98544.97;5153205;27;20035;-93
2022/02/21 07:01:56;;;;;;;23.85;11.43;;;;;;;9.98;98.07;98526.34;5157167;27;20110;-94
2022/02/21 07:04:22;;;;;;;23.92;10.75;;;;;;;9.96;97.31;98507.78;5148312;27;20042;-93
2022/02/21 07:06:48;;;;;;;28.48;11.18;;;;;;;9.97;97.47;98498.88;5141975;27;20047;-93
2022/02/21 07:09:14;;;;;;;26.70;12.07;;;;;;;10.25;96.51;98514.03;5160075;27;20050;-94
2022/02/21 07:11:40;;;;;;;29.17;13.07;;;;;;;10.27;96.04;98502.41;5152892;27;20083;-93
2022/02/21 07:14:07;;;;;;;24.77;11.75;;;;;;;10.56;95.08;98521.09;5147053;27;20066;-94
2022/02/21 07:16:33;;;;;;;31.52;13.38;;;;;;;10.73;93.99;98518.78;5146214;27;20039;-93
2022/02/21 07:18:59;;;;;;;30.27;12.73;;;;;;;10.86;93.49;98496.22;5148331;27;20045;-93
2022/02/21 07:21:25;;;;;;;28.90;12.55;;;;;;;11.11;92.52;98511.34;5157123;27;20042;-95
2022/02/21 07:23:52;;;;;;;24.70;11.05;;;;;;;11.00;91.43;98477.13;5151495;27;20067;-94
2022/02/21 07:26:18;;;;;;;22.13;10.65;;;;;;;11.06;89.96;98476.03;5153978;27;20038;-93
2022/02/21 07:28:44;;;;;;;33.05;12.27;;;;;;;11.24;90.10;98490.50;5151957;27;20058;-94
2022/02/21 07:31:12;;;;;;;25.88;11.48;;;;;;;11.26;88.67;98460.25;5149346;27;20396;-93
2022/02/21 07:33:38;;;;;;;27.50;11.30;;;;;;;11.35;88.44;98485.69;5148367;27;20043;-94
2022/02/21 07:36:04;;;;;;;28.50;11.35;;;;;;;11.21;89.37;98486.19;5151353;27;20620;-94
2022/02/21 07:38:30;;;;;;;23.20;11.63;;;;;;;11.25;89.43;98501.09;5146610;27;20031;-92
2022/02/21 07:40:56;;;;;;;23.70;11.50;;;;;;;11.37;88.85;98501.63;5151604;27;20487;-93
2022/02/21 07:43:21;;;;;;;19.95;10.60;;;;;;;11.14;87.32;98476.63;5148018;27;20369;-91
2022/02/21 07:45:47;;;;;;;24.77;11.38;;;;;;;11.05;88.07;98468.97;5154401;27;20060;-94
2022/02/21 07:48:14;;;;;;;24.48;10.73;;;;;;;11.04;88.42;98468.13;5155080;27;20404;-93
2022/02/21 07:50:40;;;;;;;27.88;12.30;;;;;;;11.22;88.25;98463.94;5157536;27;20041;-93
2022/02/21 07:53:07;;;;;;;25.58;10.55;;;;;;;11.37;87.73;98457.22;5149145;27;20126;-92
2022/02/21 07:55:33;;;;;;;24.38;10.65;;;;;;;11.45;86.79;98447.19;5151367;27;20088;-93
2022/02/21 07:57:59;;;;;;;28.23;12.30;;;;;;;11.61;88.25;98443.97;5156385;27;20051;-94
2022/02/21 08:00:25;;;;;;;23.25;10.75;;;;;;;11.64;87.09;98438.50;5151777;27;20073;-94
2022/02/21 08:02:51;;;;;;;26.95;11.15;;;;;;;11.67;86.50;98441.94;5152090;27;20096;-93
2022/02/21 08:05:18;;;;;;;27.40;10.55;;;;;;;11.62;86.19;98427.03;5149520;27;20047;-94
2022/02/21 08:07:45;;;;;;;29.48;10.95;;;;;;;11.65;86.92;98433.13;5158772;27;20046;-92
2022/02/21 08:10:11;;;;;;;26.35;11.93;;;;;;;11.50;87.69;98412.38;5156523;27;20092;-94
2022/02/21 08:12:37;;;;;;;28.10;10.73;;;;;;;11.47;86.73;98402.72;5153198;27;20492;-94
2022/02/21 08:15:04;;;;;;;23.25;11.32;;;;;;;11.54;86.86;98410.47;5151650;27;20054;-93
2022/02/21 08:17:37;;;;;;;28.50;10.75;;;;;;;11.46;85.83;98397.44;5155345;27;20058;-94
2022/02/21 08:20:04;;;;;;;22.73;9.40;;;;;;;11.62;84.97;98425.22;5150470;27;20038;-92
2022/02/21 08:22:31;;;;;;;21.77;9.50;;;;;;;11.35;84.34;98403.16;5153593;27;20119;-95
2022/02/21 08:24:57;;;;;;;19.63;8.25;;;;;;;11.39;83.57;98393.28;5155234;27;20572;-94
2022/02/21 08:27:23;;;;;;;18.52;8.38;;;;;;;11.56;82.19;98416.59;5146887;27;20035;-94
2022/02/21 08:29:48;;;;;;;16.33;6.70;;;;;;;11.51;80.22;98424.75;5152292;27;20051;-93
2022/02/21 08:32:17;;;;;;;20.75;7.28;;;;;;;11.39;80.14;98385.28;5148922;27;20043;-93
2022/02/21 08:34:43;;;;;;;16.95;6.38;;;;;;;11.69;79.20;98396.59;5154104;27;20043;-92
2022/02/21 08:37:09;;;;;;;14.98;6.18;;;;;;;11.65;78.78;98371.88;5155487;27;20039;-92
2022/02/21 08:39:36;;;;;;;17.75;6.38;;;;;;;11.77;77.77;98351.00;5156928;27;20045;-94
2022/02/21 08:42:04;;;;;;;19.25;5.95;;;;;;;11.89;77.15;98358.56;5157167;27;20066;-94
2022/02/21 08:44:31;;;;;;;15.52;5.35;;;;;;;12.20;75.43;98357.34;5161568;27;20034;-93
2022/02/21 08:46:57;;;;;;;12.43;6.13;;;;;;;12.06;74.84;98337.47;5164056;27;20049;-94
2022/02/21 08:49:23;;;;;;;17.98;5.60;;;;;;;11.58;77.20;98340.19;5163751;27;20042;-94
2022/02/21 08:51:48;;;;;;;15.80;5.00;;;;;;;11.54;78.98;98338.56;5158048;27;20035;-94
2022/02/21 08:54:17;;;;;;;16.50;5.15;;;;;;;11.47;79.01;98343.25;5153896;27;20074;-93
2022/02/21 08:56:44;;;;;;;15.23;5.33;;;;;;;11.54;78.28;98327.91;5151595;27;20047;-94
2022/02/21 08:59:10;;;;;;;19.27;5.22;;;;;;;11.69;78.43;98330.03;5157460;27;20049;-94
2022/02/21 09:01:36;;;;;;;18.98;4.85;;;;;;;11.62;78.04;98309.84;5155863;27;20047;-94
2022/02/21 09:04:04;;;;;;;16.13;5.10;;;;;;;11.94;77.24;98323.75;5151342;27;20041;-93
2022/02/21 09:06:30;;;;;;;18.15;5.43;;;;;;;12.10;76.43;98308.88;5160008;27;20070;-94
2022/02/21 09:08:56;;;;;;;20.13;5.50;;;;;;;12.37;75.76;98311.34;5158672;27;20057;-93
2022/02/21 09:11:22;;;;;;;19.50;5.10;;;;;;;12.40;74.93;98282.72;5163280;27;20053;-94
2022/02/21 09:13:49;;;;;;;13.73;4.57;;;;;;;12.74;73.43;98281.31;5148280;27;20047;-92
2022/02/21 09:16:15;;;;;;;24.05;5.13;;;;;;;12.68;73.33;98282.41;5161692;27;20039;-94
2022/02/21 09:18:41;;;;;;;17.08;4.57;;;;;;;12.57;73.96;98275.81;5163845;27;20096;-92
2022/02/21 09:21:07;;;;;;;16.75;5.00;;;;;;;12.60;74.35;98299.69;5159677;27;20423;-93
2022/02/21 09:23:33;;;;;;;13.57;4.97;;;;;;;12.27;74.27;98268.19;5164119;27;20134;-92
2022/02/21 09:26:00;;;;;;;19.75;5.90;;;;;;;12.00;75.67;98280.88;5152255;27;20038;-94
2022/02/21 09:28:25;;;;;;;18.35;4.75;;;;;;;11.87;75.82;98261.81;5163265;27;20038;-94
2022/02/21 09:30:55;;;;;;;19.48;5.78;;;;;;;11.93;76.19;98274.94;5152431;27;20196;-94
2022/02/21 09:33:21;;;;;;;18.63;6.30;;;;;;;11.90;75.95;98267.03;5157134;27;20043;-94
2022/02/21 09:35:47;;;;;;;17.90;4.40;;;;;;;11.99;76.35;98298.66;5161234;27;20042;-96
2022/02/21 09:38:13;;;;;;;17.42;5.53;;;;;;;11.91;76.54;98282.97;5159680;27;20515;-93
2022/02/21 09:40:41;;;;;;;17.83;4.53;;;;;;;11.91;77.27;98282.13;5151812;27;20419;-94
2022/02/21 09:43:07;;;;;;;18.02;4.28;;;;;;;11.77;76.81;98263.97;5152152;27;20081;-92
2022/02/21 09:45:35;;;;;;;14.10;4.63;;;;;;;11.69;77.37;98252.78;5157543;27;20122;-92
2022/02/21 09:48:03;;;;;;;17.20;4.30;;;;;;;11.87;76.69;98268.00;5158093;27;20042;-93
2022/02/21 09:50:29;;;;;;;19.85;5.28;;;;;;;11.80;76.43;98249.69;5158763;27;20051;-93
2022/02/21 09:53:00;;;;;;;19.58;4.88;;;;;;;11.87;76.58;98261.81;5156821;27;20039;-95
2022/02/21 09:55:27;;;;;;;23.38;7.30;;;;;;;11.84;76.35;98237.94;5156059;27;20038;-91
2022/02/21 09:57:53;;;;;;;27.90;5.75;;;;;;;11.95;76.40;98249.09;5161370;27;20042;-92
2022/02/21 10:00:20;;;;;;;22.30;5.03;;;;;;;11.98;75.97;98227.63;5160840;27;20436;-90
2022/02/21 10:02:47;;;;;;;14.00;4.30;;;;;;;12.17;75.30;98232.22;5161530;27;20069;-92
2022/02/21 10:05:16;;;;;;;18.50;4.97;;;;;;;12.28;75.00;98217.47;5160179;27;20035;-94
2022/02/21 10:07:43;;;;;;;16.90;6.00;;;;;;;12.42;74.84;98218.69;5150088;27;20053;-96
2022/02/21 10:10:11;;;;;;;12.95;4.28;;;;;;;12.43;74.75;98218.63;5153799;27;20039;-94
2022/02/21 10:12:45;;;;;;;17.00;5.50;;;;;;;12.38;75.35;98204.59;5157892;27;20034;-91
2022/02/21 10:15:16;;;;;;;19.13;5.00;;;;;;;12.49;74.53;98199.69;5153317;27;20030;-93
2022/02/21 10:17:41;;;;;;;18.02;4.70;;;;;;;12.54;74.22;98212.81;5154785;27;20043;-94
2022/02/21 10:20:09;;;;;;;12.48;3.97;;;;;;;12.34;73.87;98200.38;5144074;27;20114;-93
2022/02/21 10:22:37;;;;;;;23.52;5.72;;;;;;;12.44;73.58;98177.69;5146732;27;20042;-94
2022/02/21 10:25:14;;;;;;;23.70;6.32;;;;;;;12.57;73.04;98191.34;5148338;27;20042;-92
2022/02/21 10:27:40;;;;;;;15.65;4.50;;;;;;;12.50;72.78;98174.75;5155808;27;20476;-92
2022/02/21 10:30:09;;;;;;;22.33;5.00;;;;;;;12.64;72.56;98191.94;5156251;27;20066;-93
2022/02/21 10:32:38;;;;;;;25.35;6.70;;;;;;;12.64;72.26;98160.81;5148115;27;20069;-94
2022/02/21 10:35:15;;;;;;;19.60;6.40;;;;;;;12.85;72.11;98203.44;5148714;27;20049;-94
2022/02/21 10:37:44;;;;;;;19.70;5.75;;;;;;;12.65;72.03;98162.53;5154487;27;20039;-92
2022/02/21 10:40:13;;;;;;;16.27;5.28;;;;;;;12.52;71.58;98154.22;5157308;27;20095;-90
2022/02/21 10:42:39;;;;;;;18.27;5.53;;;;;;;12.63;72.05;98163.53;5150743;27;20039;-93
2022/02/21 10:45:11;;;;;;;21.02;5.10;;;;;;;12.87;71.65;98181.09;5155779;27;20282;-93
2022/02/21 10:47:37;;;;;;;14.88;4.95;;;;;;;13.02;70.83;98184.00;5150405;27;20088;-91
2022/02/21 10:50:05;;;;;;;19.20;4.75;;;;;;;12.95;70.85;98156.72;5167243;27;20030;-94
2022/02/21 10:52:37;;;;;;;24.55;4.90;;;;;;;12.97;70.24;98144.19;5158703;27;20095;-95
2022/02/21 10:55:09;;;;;;;21.02;5.85;;;;;;;13.08;69.93;98154.34;5159051;27;20042;-94
2022/02/21 10:57:45;;;;;;;18.25;5.30;;;;;;;12.78;70.24;98161.97;5159844;27;20046;-93
2022/02/21 11:00:12;;;;;;;19.23;4.30;;;;;;;12.65;70.29;98156.34;5155853;27;20035;-94
2022/02/21 11:02:40;;;;;;;18.02;3.97;;;;;;;12.62;69.69;98152.00;5147729;27;20056;-94
2022/02/21 11:05:09;;;;;;;17.80;5.50;;;;;;;12.52;70.73;98142.69;5160142;27;20043;-94
2022/02/21 11:07:36;;;;;;;;;;;;;;;12.65;71.05;98149.19;5151129;27;20055;-91
2022/02/21 11:10:17;;;;;;;20.67;4.82;;;;;;;12.51;70.37;98112.50;5159593;27;19926;-93
2022/02/21 11:12:50;;;;;;;20.65;4.53;;;;;;;12.80;68.11;98123.63;5163768;27;20035;-94
2022/02/21 11:15:20;;;;;;;17.92;5.43;;;;;;;12.87;67.06;98117.03;5166749;27;20047;-95
2022/02/21 11:17:47;;;;;;;16.83;5.03;;;;;;;12.77;66.91;98105.06;5161935;27;20103;-92
2022/02/21 11:20:13;;;;;;;20.10;6.10;;;;;;;13.00;65.93;98116.47;5168152;27;20484;-94
2022/02/21 11:22:39;;;;;;;17.70;5.78;;;;;;;12.85;66.39;98088.72;5166416;27;20050;-95
2022/02/21 11:25:16;;;;;;;18.58;5.47;;;;;;;12.80;68.10;98099.59;5167575;27;20123;-94